createdAt,value
2023-07-27T00:01:44.353Z,100.00
2023-07-27T00:06:50.045Z,100.00
2023-07-27T00:11:57.293Z,100.00
2023-07-27T00:17:02.997Z,100.00
2023-07-27T00:22:09.373Z,100.00
2023-07-27T00:27:15.324Z,100.00
2023-07-27T00:32:21.224Z,100.00
2023-07-27T00:37:26.779Z,100.00
2023-07-27T00:42:32.336Z,100.00
2023-07-27T00:47:38.296Z,100.00
2023-07-27T00:52:45.045Z,100.00
2023-07-27T00:57:50.779Z,100.00
2023-07-27T01:02:56.752Z,100.00
2023-07-27T01:08:02.804Z,100.00
2023-07-27T01:13:14.083Z,100.00
2023-07-27T01:18:26.979Z,100.00
2023-07-27T01:23:59.650Z,100.00
2023-07-27T01:29:20.724Z,100.00
2023-07-27T01:34:30.850Z,100.00
2023-07-27T01:39:41.065Z,100.00
2023-07-27T01:44:48.839Z,100.00
2023-07-27T01:49:56.300Z,100.00
2023-07-27T01:55:03.680Z,100.00
2023-07-27T02:00:11.292Z,100.00
2023-07-27T02:05:21.365Z,100.00
2023-07-27T02:10:28.562Z,100.00
2023-07-27T02:15:48.572Z,100.00
2023-07-27T02:20:55.473Z,100.00
2023-07-27T02:26:01.236Z,100.00
2023-07-27T02:31:07.150Z,100.00
2023-07-27T02:36:12.727Z,100.00
2023-07-27T02:41:19.081Z,100.00
2023-07-27T02:46:24.960Z,100.00
2023-07-27T02:51:30.864Z,100.00
2023-07-27T02:56:37.526Z,100.00
2023-07-27T03:01:43.212Z,100.00
2023-07-27T03:06:56.898Z,100.00
2023-07-27T03:12:03.046Z,100.00
2023-07-27T03:17:09.591Z,100.00
2023-07-27T03:22:15.283Z,100.00
2023-07-27T03:27:21.107Z,100.00
2023-07-27T03:32:26.721Z,100.00
2023-07-27T03:37:32.294Z,100.00
2023-07-27T03:42:37.774Z,100.00
2023-07-27T03:47:46.329Z,100.00
2023-07-27T03:52:52.306Z,100.00
2023-07-27T04:02:41.857Z,100.00
2023-07-27T04:07:51.041Z,100.00
2023-07-27T04:13:00.789Z,100.00
2023-07-27T04:18:07.783Z,100.00
2023-07-27T04:23:15.739Z,100.00
2023-07-27T04:28:22.867Z,100.00
2023-07-27T04:33:30.493Z,100.00
2023-07-27T04:38:36.615Z,100.00
2023-07-27T04:43:44.217Z,100.00
2023-07-27T04:48:50.184Z,100.00
2023-07-27T04:53:56.221Z,100.00
2023-07-27T04:59:02.179Z,100.00
2023-07-27T05:04:08.849Z,99.62
2023-07-27T05:09:15.547Z,93.03
2023-07-27T05:14:21.132Z,80.52
2023-07-27T05:19:26.746Z,68.45
2023-07-27T05:24:33.683Z,60.75
2023-07-27T05:29:39.548Z,53.86
2023-07-27T05:34:45.487Z,49.07
2023-07-27T05:39:52.094Z,45.86
2023-07-27T05:44:59.176Z,43.64
2023-07-27T05:50:06.098Z,41.22
2023-07-27T05:55:16.799Z,41.59
2023-07-27T06:00:27.615Z,43.58
2023-07-27T06:05:46.447Z,43.23
2023-07-27T06:11:02.790Z,42.48
2023-07-27T06:16:10.453Z,43.96
2023-07-27T06:21:16.906Z,43.94
2023-07-27T06:26:25.259Z,43.22
2023-07-27T06:31:31.220Z,43.99
2023-07-27T06:36:44.897Z,42.41
2023-07-27T06:41:53.052Z,41.74
2023-07-27T06:47:07.746Z,42.48
2023-07-27T06:52:14.065Z,40.54
2023-07-27T06:57:20.432Z,40.25
2023-07-27T07:02:38.274Z,37.54
2023-07-27T07:07:53.908Z,35.53
2023-07-27T07:13:01.535Z,33.56
2023-07-27T07:18:28.941Z,32.49
2023-07-27T07:23:34.783Z,31.09
2023-07-27T07:28:41.227Z,30.93
2023-07-27T07:33:47.218Z,30.49
2023-07-27T07:38:53.693Z,29.66
2023-07-27T07:43:59.388Z,29.05
2023-07-27T07:49:05.681Z,28.13
2023-07-27T07:54:11.365Z,27.85
2023-07-27T07:59:17.193Z,27.12
2023-07-27T08:04:22.933Z,26.73
2023-07-27T08:09:29.879Z,26.67
2023-07-27T08:14:35.842Z,27.97
2023-07-27T08:19:41.708Z,29.50
2023-07-27T08:24:47.451Z,28.86
2023-07-27T08:29:53.430Z,28.54
2023-07-27T08:34:59.033Z,27.64
2023-07-27T08:40:10.288Z,26.98
2023-07-27T08:45:24.386Z,26.85
2023-07-27T08:50:32.813Z,29.08
2023-07-27T08:55:42.437Z,28.62
2023-07-27T09:00:48.356Z,28.91
2023-07-27T09:06:02.112Z,30.53
2023-07-27T09:11:10.911Z,31.75
2023-07-27T09:16:25.407Z,30.66
2023-07-27T09:21:41.251Z,30.34
2023-07-27T09:26:50.314Z,30.41
2023-07-27T09:32:00.113Z,32.34
2023-07-27T09:37:11.258Z,33.58
2023-07-27T09:42:20.138Z,35.75
2023-07-27T09:47:31.704Z,37.62
2023-07-27T09:52:40.488Z,38.11
2023-07-27T09:57:47.786Z,36.59
2023-07-27T10:02:59.607Z,35.45
2023-07-27T10:08:16.748Z,36.78
2023-07-27T10:13:42.239Z,36.52
2023-07-27T10:18:50.493Z,34.86
2023-07-27T10:23:58.367Z,33.56
2023-07-27T10:29:15.638Z,32.24
2023-07-27T10:34:25.684Z,32.64
2023-07-27T10:39:36.140Z,31.12
2023-07-27T10:44:46.951Z,30.67
2023-07-27T10:49:54.267Z,30.11
2023-07-27T10:55:01.315Z,28.56
2023-07-27T11:00:10.434Z,27.89
2023-07-27T11:05:16.426Z,28.17
2023-07-27T11:10:34.189Z,29.85
2023-07-27T11:15:40.351Z,28.24
2023-07-27T11:20:47.789Z,28.85
2023-07-27T11:25:56.097Z,29.80
2023-07-27T11:31:08.126Z,28.51
2023-07-27T11:36:14.080Z,27.35
2023-07-27T11:46:50.150Z,26.67
2023-07-27T11:51:59.099Z,26.89
2023-07-27T11:57:05.854Z,27.01
2023-07-27T12:02:13.564Z,28.35
2023-07-27T12:07:26.955Z,28.67
2023-07-27T12:17:52.814Z,28.65
2023-07-27T12:23:30.115Z,28.88
2023-07-27T12:33:33.939Z,31.67
2023-07-27T12:43:48.113Z,31.11
2023-07-27T12:48:55.627Z,31.89
2023-07-27T12:54:05.409Z,32.05
2023-07-27T12:59:13.009Z,32.89
2023-07-27T13:04:18.769Z,31.98
2023-07-27T13:09:24.711Z,32.12
2023-07-27T13:14:31.380Z,32.14
2023-07-27T13:19:37.204Z,30.95
2023-07-27T13:24:42.986Z,32.96
2023-07-27T13:29:49.327Z,33.65
2023-07-27T13:34:55.692Z,33.54
2023-07-27T13:40:02.917Z,33.99
2023-07-27T13:45:11.099Z,34.10
2023-07-27T13:50:18.574Z,33.01
2023-07-27T13:55:24.811Z,34.25
2023-07-27T14:00:32.644Z,33.68
2023-07-27T14:05:40.083Z,33.40
2023-07-27T14:10:46.463Z,34.28
2023-07-27T14:15:52.906Z,35.28
2023-07-27T14:20:58.721Z,34.08
2023-07-27T14:26:05.785Z,34.87
2023-07-27T14:31:13.855Z,34.30
2023-07-27T14:36:20.559Z,35.27
2023-07-27T14:41:27.604Z,35.03
2023-07-27T14:46:35.483Z,35.10
2023-07-27T14:51:41.978Z,34.17
2023-07-27T14:56:49.495Z,34.43
2023-07-27T15:01:58.723Z,34.29
2023-07-27T15:07:06.843Z,35.31
2023-07-27T15:12:16.068Z,35.30
2023-07-27T15:17:22.362Z,35.75
2023-07-27T15:22:28.802Z,35.84
2023-07-27T15:27:35.123Z,36.38
2023-07-27T15:32:42.281Z,36.40
2023-07-27T15:37:48.177Z,36.49
2023-07-27T15:42:54.935Z,36.33
2023-07-27T15:48:02.584Z,36.08
2023-07-27T15:53:09.954Z,35.86
2023-07-27T15:58:16.020Z,35.88
2023-07-27T16:03:22.337Z,36.70
2023-07-27T16:08:28.626Z,37.04
2023-07-27T16:13:34.817Z,37.04
2023-07-27T16:18:40.539Z,37.60
2023-07-27T16:23:46.654Z,37.42
2023-07-27T16:28:52.418Z,37.79
2023-07-27T16:33:58.268Z,38.18
2023-07-27T16:39:04.284Z,38.56
2023-07-27T16:44:10.688Z,38.23
2023-07-27T16:49:16.650Z,38.54
2023-07-27T16:54:22.427Z,39.24
2023-07-27T16:59:28.345Z,40.52
2023-07-27T17:04:37.781Z,41.23
2023-07-27T17:14:50.820Z,41.82
2023-07-27T17:19:57.222Z,42.43
2023-07-27T17:25:03.316Z,43.37
2023-07-27T17:30:13.292Z,43.57
2023-07-27T17:35:19.260Z,44.25
2023-07-27T17:40:25.491Z,44.33
2023-07-27T17:45:32.540Z,45.01
2023-07-27T17:50:38.589Z,45.92
2023-07-27T17:55:44.054Z,46.50
2023-07-27T18:00:49.973Z,46.01
2023-07-27T18:05:57.738Z,45.63
2023-07-27T18:11:10.141Z,46.62
2023-07-27T18:16:24.567Z,48.12
2023-07-27T18:21:30.756Z,48.83
2023-07-27T18:26:37.891Z,49.94
2023-07-27T18:31:43.594Z,51.21
2023-07-27T18:36:51.164Z,52.82
2023-07-27T18:42:18.307Z,54.15
2023-07-27T18:47:31.516Z,57.30
2023-07-27T18:52:39.873Z,58.89
2023-07-27T18:57:45.683Z,60.10
2023-07-27T19:02:51.823Z,62.23
2023-07-27T19:07:57.711Z,63.56
2023-07-27T19:13:03.682Z,65.15
2023-07-27T19:18:09.832Z,65.88
2023-07-27T19:23:19.114Z,66.85
2023-07-27T19:28:25.853Z,67.91
2023-07-27T19:33:34.440Z,69.07
2023-07-27T19:38:44.547Z,70.12
2023-07-27T19:43:53.253Z,70.82
2023-07-27T19:48:59.330Z,71.67
2023-07-27T19:54:05.761Z,72.47
2023-07-27T19:59:13.055Z,73.39
2023-07-27T20:04:19.045Z,74.07
2023-07-27T20:09:25.144Z,74.63
2023-07-27T20:14:35.479Z,75.77
2023-07-27T20:19:44.963Z,76.39
2023-07-27T20:24:53.110Z,76.87
2023-07-27T20:30:00.721Z,77.19
2023-07-27T20:35:16.945Z,77.93
2023-07-27T20:40:27.115Z,78.93
2023-07-27T20:45:37.786Z,79.68
2023-07-27T20:50:48.892Z,80.28
2023-07-27T20:55:57.393Z,80.86
2023-07-27T21:01:06.397Z,81.34
2023-07-27T21:06:12.415Z,81.63
2023-07-27T21:11:20.679Z,82.22
2023-07-27T21:16:26.921Z,82.73
2023-07-27T21:21:34.837Z,83.10
2023-07-27T21:26:42.408Z,83.93
2023-07-27T21:31:49.111Z,84.27
2023-07-27T21:36:56.585Z,84.71
2023-07-27T21:42:02.584Z,85.37
2023-07-27T21:47:09.764Z,85.84
2023-07-27T21:52:17.760Z,86.20
2023-07-27T21:57:24.641Z,86.63
2023-07-27T22:02:31.787Z,86.86
2023-07-27T22:07:39.016Z,87.14
2023-07-27T22:12:50.589Z,87.28
2023-07-27T22:18:10.299Z,86.76
2023-07-27T22:23:16.463Z,85.85
2023-07-27T22:28:22.084Z,84.44
2023-07-27T22:33:27.975Z,83.71
2023-07-27T22:38:33.884Z,83.99
2023-07-27T22:43:39.761Z,84.20
2023-07-27T22:48:45.577Z,83.68
2023-07-27T22:53:51.576Z,83.23
2023-07-27T22:58:57.738Z,82.77
2023-07-27T23:04:03.429Z,83.76
2023-07-27T23:09:09.494Z,83.60
2023-07-27T23:14:15.485Z,82.69
2023-07-27T23:19:21.556Z,81.54
2023-07-27T23:24:27.372Z,80.95
2023-07-27T23:29:32.934Z,80.88
2023-07-27T23:34:38.617Z,80.12
2023-07-27T23:39:44.337Z,79.86
2023-07-27T23:44:50.234Z,79.57
2023-07-27T23:49:55.956Z,79.55
2023-07-27T23:55:01.579Z,79.66
